createdAt,value
2018-06-15T00:02:20.063Z,100075.63
2018-06-15T00:04:53.235Z,100070.23
2018-06-15T00:07:27.641Z,100070.06
2018-06-15T00:10:01.463Z,100067.98
2018-06-15T00:12:35.170Z,100075.79
2018-06-15T00:15:06.817Z,100071.96
2018-06-15T00:18:04.128Z,100073.70
2018-06-15T00:20:48.325Z,100076.03
2018-06-15T00:23:20.821Z,100070.03
2018-06-15T00:25:53.698Z,100070.47
2018-06-15T00:28:26.476Z,100068.80
2018-06-15T00:30:59.108Z,100067.32
2018-06-15T00:33:32.645Z,100070.06
2018-06-15T00:36:05.344Z,100072.64
2018-06-15T00:38:37.909Z,100068.16
2018-06-15T00:41:10.665Z,100072.79
2018-06-15T00:43:43.096Z,100072.92
2018-06-15T00:46:15.653Z,100074.31
2018-06-15T00:48:48.365Z,100071.63
2018-06-15T00:51:20.832Z,100069.35
2018-06-15T00:53:54.871Z,100070.16
2018-06-15T00:56:28.254Z,100069.17
2018-06-15T00:59:00.625Z,100071.77
2018-06-15T01:01:34.656Z,100064.20
2018-06-15T01:04:08.331Z,100061.48
2018-06-15T01:06:40.944Z,100060.08
2018-06-15T01:09:14.128Z,100062.55
2018-06-15T01:11:48.435Z,100061.16
2018-06-15T01:14:20.971Z,100060.00
2018-06-15T01:16:53.517Z,100055.23
2018-06-15T01:19:26.364Z,100056.95
2018-06-15T01:21:59.232Z,100053.73
2018-06-15T01:24:31.639Z,100052.25
2018-06-15T01:27:05.860Z,100057.61
2018-06-15T01:29:38.324Z,100051.84
2018-06-15T01:32:10.792Z,100051.20
2018-06-15T01:34:43.641Z,100049.33
2018-06-15T01:37:19.638Z,100050.73
2018-06-15T01:39:52.260Z,100046.38
2018-06-15T01:42:25.715Z,100043.73
2018-06-15T01:44:59.844Z,100042.39
2018-06-15T01:47:37.295Z,100040.17
2018-06-15T01:50:10.026Z,100032.30
2018-06-15T01:52:42.806Z,100033.75
2018-06-15T01:55:16.423Z,100032.59
2018-06-15T01:57:49.148Z,100029.08
2018-06-15T02:00:22.009Z,100030.23
2018-06-15T02:03:03.729Z,100032.61
2018-06-15T02:05:36.673Z,100032.68
2018-06-15T02:08:09.288Z,100034.00
2018-06-15T02:10:44.954Z,100027.75
2018-06-15T02:13:18.079Z,100025.64
2018-06-15T02:15:50.844Z,100031.03
2018-06-15T02:18:23.261Z,100025.45
2018-06-15T02:20:57.379Z,100028.98
2018-06-15T02:23:29.839Z,100027.89
2018-06-15T02:26:04.339Z,100031.31
2018-06-15T02:28:37.911Z,100025.52
2018-06-15T02:31:10.444Z,100023.98
2018-06-15T02:33:43.901Z,100028.29
2018-06-15T02:36:17.864Z,100020.03
2018-06-15T02:38:50.487Z,100026.83
2018-06-15T02:41:23.063Z,100026.64
2018-06-15T02:43:55.785Z,100032.81
2018-06-15T02:46:28.182Z,100033.73
2018-06-15T02:49:00.703Z,100034.72
2018-06-15T02:51:34.593Z,100035.58
2018-06-15T02:54:07.166Z,100033.87
2018-06-15T02:56:40.032Z,100040.98
2018-06-15T02:59:12.885Z,100038.69
2018-06-15T03:01:45.440Z,100041.72
2018-06-15T03:04:17.953Z,100043.77
2018-06-15T03:06:50.713Z,100042.52
2018-06-15T03:09:23.356Z,100041.70
2018-06-15T03:11:55.901Z,100042.48
2018-06-15T03:14:56.822Z,100048.00
2018-06-15T03:17:32.978Z,100044.91
2018-06-15T03:20:05.573Z,100051.36
2018-06-15T03:22:41.076Z,100051.64
2018-06-15T03:25:15.416Z,100050.96
2018-06-15T03:27:48.084Z,100053.32
2018-06-15T03:30:22.041Z,100055.33
2018-06-15T03:35:27.600Z,100062.09
2018-06-15T03:38:00.321Z,100061.06
2018-06-15T03:40:32.691Z,100067.30
2018-06-15T03:43:05.512Z,100061.92
2018-06-15T03:45:38.331Z,100069.78
2018-06-15T03:48:10.900Z,100068.08
2018-06-15T03:50:43.991Z,100069.62
2018-06-15T03:53:18.605Z,100071.70
2018-06-15T03:55:51.195Z,100066.95
2018-06-15T03:58:23.877Z,100068.22
2018-06-15T04:00:58.231Z,100077.87
2018-06-15T04:03:31.292Z,100077.67
2018-06-15T04:06:03.725Z,100081.70
2018-06-15T04:08:36.640Z,100081.69
2018-06-15T04:11:09.984Z,100083.99
2018-06-15T04:13:44.458Z,100076.71
2018-06-15T04:16:17.149Z,100075.06
2018-06-15T04:18:49.633Z,100073.72
2018-06-15T04:21:22.190Z,100079.45
2018-06-15T04:23:56.044Z,100075.23
2018-06-15T04:26:28.484Z,100079.75
2018-06-15T04:29:00.961Z,100082.36
2018-06-15T04:31:36.504Z,100083.39
2018-06-15T04:34:09.004Z,100085.66
2018-06-15T04:36:43.425Z,100087.36
2018-06-15T04:39:16.317Z,100088.09
2018-06-15T04:41:48.612Z,100085.19
2018-06-15T04:44:21.064Z,100086.84
2018-06-15T04:46:54.736Z,100085.50
2018-06-15T04:49:27.243Z,100092.25
2018-06-15T04:52:00.017Z,100089.12
2018-06-15T04:54:32.900Z,100091.39
2018-06-15T04:57:05.490Z,100092.78
2018-06-15T04:59:38.011Z,100089.95
2018-06-15T05:02:11.670Z,100092.95
2018-06-15T05:04:45.684Z,100089.55
2018-06-15T05:07:17.987Z,100091.91
2018-06-15T05:09:50.621Z,100095.53
2018-06-15T05:12:24.223Z,100101.06
2018-06-15T05:14:57.082Z,100100.63
2018-06-15T05:17:33.250Z,100103.22
2018-06-15T05:20:07.512Z,100103.81
2018-06-15T05:22:40.049Z,100104.59
2018-06-15T05:25:13.689Z,100104.83
2018-06-15T05:27:46.396Z,100112.62
2018-06-15T05:30:20.016Z,100113.42
2018-06-15T05:32:53.735Z,100112.48
2018-06-15T05:35:39.646Z,100115.88
2018-06-15T05:38:13.628Z,100116.21
2018-06-15T05:40:52.332Z,100111.48
2018-06-15T05:43:25.175Z,100115.59
2018-06-15T05:45:58.480Z,100113.23
2018-06-15T05:48:31.249Z,100106.67
2018-06-15T05:51:03.792Z,100100.44
2018-06-15T05:53:38.548Z,100103.42
2018-06-15T05:56:11.532Z,100108.25
2018-06-15T05:58:44.658Z,100105.90
2018-06-15T06:01:18.945Z,100108.49
2018-06-15T06:03:52.384Z,100105.37
2018-06-15T06:06:24.953Z,100099.44
2018-06-15T06:09:00.464Z,100100.95
2018-06-15T06:11:36.113Z,100101.45
2018-06-15T06:14:10.404Z,100106.14
2018-06-15T06:16:43.897Z,100111.23
2018-06-15T06:19:16.710Z,100111.63
2018-06-15T06:21:52.237Z,100116.91
2018-06-15T06:24:25.884Z,100124.94
2018-06-15T06:27:02.740Z,100126.54
2018-06-15T06:29:35.780Z,100129.90
2018-06-15T06:32:08.797Z,100134.11
2018-06-15T06:34:43.076Z,100138.98
2018-06-15T06:37:19.400Z,100137.97
2018-06-15T06:39:51.843Z,100140.87
2018-06-15T06:42:26.143Z,100138.67
2018-06-15T06:44:58.587Z,100143.98
2018-06-15T06:47:32.999Z,100147.09
2018-06-15T06:50:09.191Z,100146.19
2018-06-15T06:52:43.847Z,100140.75
2018-06-15T06:55:17.117Z,100138.55
2018-06-15T06:57:52.817Z,100140.20
2018-06-15T07:00:25.261Z,100143.13
2018-06-15T07:03:03.065Z,100144.81
2018-06-15T07:05:36.936Z,100137.88
2018-06-15T07:08:11.324Z,100141.21
2018-06-15T07:10:44.608Z,100135.92
2018-06-15T07:13:19.421Z,100142.32
2018-06-15T07:15:52.005Z,100142.77
2018-06-15T07:18:26.494Z,100141.14
2018-06-15T07:21:01.276Z,100139.15
2018-06-15T07:23:37.407Z,100144.17
2018-06-15T07:26:12.666Z,100143.72
2018-06-15T07:28:46.396Z,100147.98
2018-06-15T07:31:19.304Z,100141.38
2018-06-15T07:33:52.203Z,100144.85
2018-06-15T07:36:26.784Z,100134.47
2018-06-15T07:39:02.108Z,100136.95
2018-06-15T07:41:35.667Z,100140.03
2018-06-15T07:44:12.713Z,100144.70
2018-06-15T07:46:47.568Z,100145.14
2018-06-15T07:49:20.476Z,100149.37
2018-06-15T07:51:54.107Z,100138.14
2018-06-15T07:54:27.653Z,100138.30
2018-06-15T07:57:04.632Z,100141.44
2018-06-15T07:59:39.991Z,100144.10
2018-06-15T08:02:16.730Z,100142.64
2018-06-15T08:04:52.521Z,100148.46
2018-06-15T08:07:28.594Z,100152.87
2018-06-15T08:10:06.506Z,100148.48
2018-06-15T08:12:40.854Z,100148.80
2018-06-15T08:15:19.493Z,100140.98
2018-06-15T08:17:59.943Z,100147.78
2018-06-15T08:20:33.792Z,100146.03
2018-06-15T08:23:08.120Z,100138.48
2018-06-15T08:25:40.868Z,100138.46
2018-06-15T08:28:15.145Z,100138.05
2018-06-15T08:30:51.045Z,100138.36
2018-06-15T08:33:25.242Z,100135.95
2018-06-15T08:36:00.680Z,100144.09
2018-06-15T08:38:33.527Z,100142.75
2018-06-15T08:41:10.673Z,100140.16
2018-06-15T08:43:45.359Z,100135.58
2018-06-15T08:46:19.277Z,100133.37
2018-06-15T08:48:52.419Z,100137.02
2018-06-15T08:51:26.241Z,100134.73
2018-06-15T08:54:01.716Z,100131.27
2018-06-15T08:56:34.289Z,100131.91
2018-06-15T08:59:08.697Z,100131.23
2018-06-15T09:01:43.039Z,100129.78
2018-06-15T09:04:17.218Z,100129.82
2018-06-15T09:06:50.644Z,100135.27
2018-06-15T09:09:23.517Z,100136.87
2018-06-15T09:11:56.144Z,100137.69
2018-06-15T09:14:31.556Z,100138.50
2018-06-15T09:17:05.539Z,100139.09
2018-06-15T09:19:40.928Z,100140.04
2018-06-15T09:22:14.540Z,100128.25
2018-06-15T09:24:47.011Z,100133.58
2018-06-15T09:27:20.072Z,100128.14
2018-06-15T09:29:56.128Z,100131.75
2018-06-15T09:32:29.867Z,100127.33
2018-06-15T09:35:03.519Z,100126.30
2018-06-15T09:37:36.443Z,100128.78
2018-06-15T09:40:08.976Z,100128.33
2018-06-15T09:42:48.353Z,100125.31
2018-06-15T09:45:23.929Z,100128.48
2018-06-15T09:47:59.102Z,100129.38
2018-06-15T09:50:33.672Z,100120.59
2018-06-15T09:53:06.891Z,100123.81
2018-06-15T09:55:40.012Z,100132.84
2018-06-15T09:58:14.839Z,100127.89
2018-06-15T10:00:52.012Z,100123.80
2018-06-15T10:03:25.556Z,100124.48
2018-06-15T10:05:59.488Z,100123.48
2018-06-15T10:08:33.613Z,100124.61
2018-06-15T10:11:09.100Z,100126.17
2018-06-15T10:13:46.662Z,100127.53
2018-06-15T10:16:23.584Z,100125.43
2018-06-15T10:19:00.422Z,100124.39
2018-06-15T10:21:33.448Z,100124.81
2018-06-15T10:24:11.083Z,100129.64
2018-06-15T10:26:45.648Z,100122.75
2018-06-15T10:29:22.982Z,100115.45
2018-06-15T10:31:58.319Z,100115.52
2018-06-15T10:34:35.243Z,100114.38
2018-06-15T10:37:10.051Z,100113.65
2018-06-15T10:39:46.383Z,100125.00
2018-06-15T10:42:20.356Z,100120.73
2018-06-15T10:44:55.797Z,100109.48
2018-06-15T10:47:31.840Z,100108.59
2018-06-15T10:50:07.338Z,100107.77
2018-06-15T10:52:44.021Z,100105.13
2018-06-15T10:55:18.172Z,100104.80
2018-06-15T10:57:51.683Z,100107.27
2018-06-15T11:00:26.362Z,100108.84
2018-06-15T11:02:58.712Z,100108.25
2018-06-15T11:05:37.495Z,100109.23
2018-06-15T11:08:13.271Z,100108.64
2018-06-15T11:10:47.043Z,100106.89
2018-06-15T11:13:21.265Z,100105.09
2018-06-15T11:15:57.316Z,100100.37
2018-06-15T11:18:32.037Z,100098.48
2018-06-15T11:21:06.024Z,100091.95
2018-06-15T11:23:41.480Z,100095.47
2018-06-15T11:26:13.774Z,100090.30
2018-06-15T11:28:47.887Z,100085.03
2018-06-15T11:31:23.722Z,100088.29
2018-06-15T11:33:58.266Z,100084.98
2018-06-15T11:36:32.676Z,100081.19
2018-06-15T11:39:10.576Z,100074.61
2018-06-15T11:41:43.168Z,100081.79
2018-06-15T11:44:18.486Z,100083.47
2018-06-15T11:46:54.153Z,100078.78
2018-06-15T11:49:29.442Z,100074.37
2018-06-15T11:52:04.308Z,100070.08
2018-06-15T11:54:38.769Z,100063.38
2018-06-15T11:57:12.895Z,100060.94
2018-06-15T11:59:46.919Z,100062.73
2018-06-15T12:02:20.455Z,100058.55
2018-06-15T12:04:56.083Z,100060.27
2018-06-15T12:07:47.432Z,100056.51
2018-06-15T12:10:20.667Z,100058.23
2018-06-15T12:12:53.854Z,100048.97
2018-06-15T12:15:28.711Z,100046.84
2018-06-15T12:18:02.533Z,100047.14
2018-06-15T12:20:36.827Z,100039.27
2018-06-15T12:23:14.621Z,100039.67
2018-06-15T12:25:48.401Z,100040.08
2018-06-15T12:28:21.975Z,100036.67
2018-06-15T12:30:57.729Z,100038.48
2018-06-15T12:33:30.669Z,100043.34
2018-06-15T12:36:04.677Z,100038.17
2018-06-15T12:38:39.695Z,100038.73
2018-06-15T12:41:17.094Z,100043.53
2018-06-15T12:44:00.368Z,100046.31
2018-06-15T12:46:36.593Z,100041.78
2018-06-15T12:49:11.583Z,100044.86
2018-06-15T12:51:46.456Z,100046.80
2018-06-15T12:54:24.096Z,100040.25
2018-06-15T12:57:02.349Z,100042.23
2018-06-15T12:59:36.017Z,100037.16
2018-06-15T13:02:10.754Z,100036.63
2018-06-15T13:04:45.475Z,100041.47
2018-06-15T13:07:20.731Z,100040.37
2018-06-15T13:09:59.074Z,100036.55
2018-06-15T13:12:34.383Z,100032.64
2018-06-15T13:15:07.191Z,100034.22
2018-06-15T13:17:41.372Z,100036.47
2018-06-15T13:20:14.399Z,100033.97
2018-06-15T13:22:47.406Z,100036.48
2018-06-15T13:25:21.466Z,100035.75
2018-06-15T13:27:56.434Z,100046.68
2018-06-15T13:30:30.733Z,100038.85
2018-06-15T13:33:04.993Z,100040.44
2018-06-15T13:35:37.886Z,100036.72
2018-06-15T13:38:11.471Z,100039.28
2018-06-15T13:40:44.344Z,100034.94
2018-06-15T13:43:19.755Z,100037.17
2018-06-15T13:45:54.756Z,100032.77
2018-06-15T13:48:28.827Z,100036.61
2018-06-15T13:51:01.544Z,100036.56
2018-06-15T13:53:36.129Z,100032.27
2018-06-15T13:56:10.524Z,100029.12
2018-06-15T13:58:45.997Z,100029.63
2018-06-15T14:01:23.786Z,100032.06
2018-06-15T14:03:58.447Z,100025.25
2018-06-15T14:06:32.615Z,100026.05
2018-06-15T14:09:09.355Z,100030.20
2018-06-15T14:11:51.078Z,100025.62
2018-06-15T14:14:26.328Z,100022.72
2018-06-15T14:17:02.185Z,100021.90
2018-06-15T14:19:38.129Z,100026.25
2018-06-15T14:22:11.316Z,100029.09
2018-06-15T14:24:46.422Z,100019.29
2018-06-15T14:27:22.650Z,100016.55
2018-06-15T14:30:05.933Z,100008.53
2018-06-15T14:32:40.837Z,100014.82
2018-06-15T14:35:13.372Z,100009.97
2018-06-15T14:37:46.357Z,100012.97
2018-06-15T14:40:20.045Z,100009.39
2018-06-15T14:42:52.636Z,100007.05
2018-06-15T14:45:29.084Z,100004.89
2018-06-15T14:48:04.756Z,100010.78
2018-06-15T14:50:43.201Z,100009.77
2018-06-15T14:53:18.836Z,100007.03
2018-06-15T14:55:53.627Z,100006.70
2018-06-15T14:58:41.061Z,99994.68
2018-06-15T15:01:18.236Z,99997.23
2018-06-15T15:03:53.044Z,99994.64
2018-06-15T15:06:26.913Z,99998.25
2018-06-15T15:09:01.734Z,99995.71
2018-06-15T15:11:36.076Z,99991.50
2018-06-15T15:14:11.896Z,99993.81
2018-06-15T15:16:46.135Z,100000.39
2018-06-15T15:19:24.372Z,99995.06
2018-06-15T15:22:00.690Z,99989.12
2018-06-15T15:24:34.860Z,99990.50
2018-06-15T15:27:09.193Z,99988.94
2018-06-15T15:29:43.794Z,99989.98
2018-06-15T15:32:18.164Z,99991.11
2018-06-15T15:34:51.508Z,99992.55
2018-06-15T15:37:27.826Z,99992.30
2018-06-15T15:40:01.716Z,99993.03
2018-06-15T15:42:34.952Z,99998.16
2018-06-15T15:45:08.104Z,99998.27
2018-06-15T15:47:43.025Z,99997.23
2018-06-15T15:50:15.468Z,99996.61
2018-06-15T15:52:48.366Z,99988.38
2018-06-15T15:55:22.566Z,99984.27
2018-06-15T15:57:57.033Z,99984.64
2018-06-15T16:00:32.304Z,99975.17
2018-06-15T16:03:08.101Z,99974.70
2018-06-15T16:05:44.932Z,99973.60
2018-06-15T16:08:19.276Z,99973.54
2018-06-15T16:10:54.678Z,99971.70
2018-06-15T16:13:32.185Z,99973.86
2018-06-15T16:16:07.424Z,99973.69
2018-06-15T16:18:42.989Z,99972.78
2018-06-15T16:21:18.709Z,99978.17
2018-06-15T16:23:54.187Z,99974.16
2018-06-15T16:26:29.542Z,99970.39
2018-06-15T16:29:02.076Z,99963.06
2018-06-15T16:31:35.912Z,99967.78
2018-06-15T16:34:09.367Z,99964.57
2018-06-15T16:36:49.650Z,99967.49
2018-06-15T16:39:59.425Z,99964.22
2018-06-15T16:42:35.972Z,99965.08
2018-06-15T16:45:42.468Z,99964.94
2018-06-15T16:48:32.780Z,99961.66
2018-06-15T16:51:09.960Z,99962.42
2018-06-15T16:53:58.388Z,99962.42
2018-06-15T16:56:35.161Z,99964.73
2018-06-15T16:59:13.014Z,99964.48
2018-06-15T17:01:54.914Z,99970.08
2018-06-15T17:04:30.351Z,99965.77
2018-06-15T17:07:05.673Z,99958.19
2018-06-15T17:09:40.321Z,99961.97
2018-06-15T17:12:19.281Z,99961.25
2018-06-15T17:14:55.181Z,99962.75
2018-06-15T17:17:32.815Z,99961.09
2018-06-15T17:20:06.474Z,99955.00
2018-06-15T17:22:39.948Z,99956.70
2018-06-15T17:25:12.844Z,99960.58
2018-06-15T17:27:47.312Z,99964.77
2018-06-15T17:30:20.377Z,99972.33
2018-06-15T17:32:56.528Z,99969.03
2018-06-15T17:35:30.933Z,99967.81
2018-06-15T17:38:06.236Z,99969.86
2018-06-15T17:40:41.449Z,99975.69
2018-06-15T17:43:15.985Z,99974.02
2018-06-15T17:45:50.788Z,99977.20
2018-06-15T17:48:32.614Z,99980.97
2018-06-15T17:51:07.078Z,99981.08
2018-06-15T17:53:41.541Z,99987.38
2018-06-15T17:56:15.440Z,99982.45
2018-06-15T17:58:49.768Z,99981.88
2018-06-15T18:01:24.968Z,99984.78
2018-06-15T18:04:13.699Z,99985.84
2018-06-15T18:06:56.580Z,99990.45
2018-06-15T18:09:38.443Z,99988.72
2018-06-15T18:12:24.690Z,99988.86
2018-06-15T18:14:59.473Z,99988.94
2018-06-15T18:17:33.693Z,99990.22
2018-06-15T19:07:50.170Z,99987.81
2018-06-15T19:10:26.764Z,99985.13
2018-06-15T19:13:01.101Z,99983.66
2018-06-15T19:15:38.942Z,99993.55
2018-06-15T19:18:11.684Z,99986.83
2018-06-15T19:20:45.786Z,99997.32
2018-06-15T19:23:21.625Z,99989.51
2018-06-15T19:25:55.274Z,99990.48
2018-06-15T19:28:30.755Z,99990.08
2018-06-15T19:31:18.029Z,99995.34
2018-06-15T19:33:53.301Z,100002.27
2018-06-15T19:36:26.601Z,99997.22
2018-06-15T19:39:00.088Z,100001.03
2018-06-15T19:41:33.818Z,100001.11
2018-06-15T19:44:07.119Z,100000.25
2018-06-15T19:46:41.037Z,100002.04
2018-06-15T19:49:15.608Z,100002.02
2018-06-15T19:51:52.549Z,99999.55
2018-06-15T19:54:28.457Z,100007.41
2018-06-15T19:57:04.410Z,100003.44
2018-06-15T19:59:40.501Z,100008.14
2018-06-15T20:02:15.496Z,100010.55
2018-06-15T20:04:51.120Z,100006.37
2018-06-15T20:07:27.963Z,100003.48
2018-06-15T20:10:05.232Z,100003.91
2018-06-15T20:12:40.632Z,100001.62
2018-06-15T20:15:22.349Z,99999.73
2018-06-15T20:17:58.786Z,99997.31
2018-06-15T20:20:49.565Z,99999.73
2018-06-15T20:23:34.431Z,100001.69
2018-06-15T20:26:27.313Z,100003.07
2018-06-15T20:29:00.851Z,99998.12
2018-06-15T20:31:37.727Z,99996.81
2018-06-15T20:34:11.931Z,100003.44
2018-06-15T20:36:45.484Z,100001.73
2018-06-15T20:39:19.398Z,100005.00
2018-06-15T20:41:53.325Z,100003.25
2018-06-15T20:44:37.672Z,100007.90
2018-06-15T20:47:12.395Z,100011.13
2018-06-15T20:49:49.965Z,100006.47
2018-06-15T20:52:23.307Z,100005.25
2018-06-15T20:54:59.792Z,100008.66
2018-06-15T20:57:35.748Z,100001.38
2018-06-15T21:00:15.416Z,99998.11
2018-06-15T21:02:49.864Z,99996.19
2018-06-15T21:05:26.118Z,99995.30
2018-06-15T21:07:59.541Z,99997.23
2018-06-15T21:10:36.706Z,99995.21
2018-06-15T21:13:13.820Z,99993.02
2018-06-15T21:15:51.097Z,99994.53
2018-06-15T21:19:07.404Z,99990.59
2018-06-15T21:21:41.677Z,99990.48
2018-06-15T21:24:20.734Z,99991.25
2018-06-15T21:27:05.130Z,99992.55
2018-06-15T21:29:45.389Z,99990.02
2018-06-15T21:32:19.564Z,99988.86
2018-06-15T21:34:54.033Z,99990.00
2018-06-15T21:37:29.621Z,99995.69
2018-06-15T21:40:03.833Z,99995.59
2018-06-15T21:42:43.723Z,99989.92
2018-06-15T21:45:18.904Z,99987.71
2018-06-15T21:47:54.876Z,99988.25
2018-06-15T21:50:31.261Z,99993.22
2018-06-15T21:53:10.830Z,99987.20
2018-06-15T21:55:46.731Z,99980.81
2018-06-15T21:58:20.705Z,99986.50
2018-06-15T22:00:56.614Z,99982.59
2018-06-15T22:03:31.633Z,99987.66
2018-06-15T22:06:06.531Z,99988.02
2018-06-15T22:08:45.124Z,99990.03
2018-06-15T22:11:23.233Z,99988.36
2018-06-15T22:13:57.838Z,99985.70
2018-06-15T22:16:39.579Z,99986.45
2018-06-15T22:19:14.531Z,99984.27
2018-06-15T22:21:49.547Z,99983.16
2018-06-15T22:24:29.507Z,99982.21
2018-06-15T22:27:02.797Z,99976.57
2018-06-15T22:29:38.943Z,99978.78
2018-06-15T22:32:15.150Z,99982.93
2018-06-15T22:34:48.978Z,99983.18
2018-06-15T22:37:22.337Z,99986.11
2018-06-15T22:39:58.676Z,99984.72
2018-06-15T22:42:33.306Z,99986.08
2018-06-15T22:45:09.603Z,99984.38
2018-06-15T22:47:48.035Z,99981.58
2018-06-15T22:50:22.534Z,99989.09
2018-06-15T22:52:57.131Z,99986.84
2018-06-15T22:55:29.747Z,99992.95
2018-06-15T22:58:03.425Z,100001.13
2018-06-15T23:00:37.748Z,99998.59
2018-06-15T23:03:12.458Z,99998.79
2018-06-15T23:05:46.594Z,99992.76
2018-06-15T23:08:20.986Z,99991.11
2018-06-15T23:10:53.633Z,99993.25
2018-06-15T23:13:26.833Z,99994.64
2018-06-15T23:16:00.664Z,99987.61
2018-06-15T23:18:33.491Z,99989.55
2018-06-15T23:21:06.809Z,99991.94
2018-06-15T23:23:43.619Z,99992.39
2018-06-15T23:26:17.320Z,99993.45
2018-06-15T23:28:50.819Z,99991.57
2018-06-15T23:31:23.925Z,99991.56
2018-06-15T23:33:57.282Z,99991.53
2018-06-15T23:36:29.870Z,99992.38
2018-06-15T23:39:06.141Z,99995.16
2018-06-15T23:41:41.209Z,99997.14
2018-06-15T23:44:13.612Z,100000.66
2018-06-15T23:46:46.572Z,100000.75
2018-06-15T23:49:21.250Z,99995.98
2018-06-15T23:51:53.821Z,99994.45
2018-06-15T23:54:27.964Z,99998.97
2018-06-15T23:57:02.150Z,99998.95
2018-06-15T23:59:37.434Z,99999.13
